sensor_id;sensor_type;location;lat;lon;timestamp;P1;durP1;ratioP1;P2;durP2;ratioP2
59922;SDS011;45778;51.142;3.732;2023-04-03T00:01:13;14.95;;;7.57;;
59922;SDS011;45778;51.142;3.732;2023-04-03T00:03:39;17.85;;;8.27;;
59922;SDS011;45778;51.142;3.732;2023-04-03T00:06:09;15.57;;;7.22;;
59922;SDS011;45778;51.142;3.732;2023-04-03T00:08:36;13.70;;;6.55;;
59922;SDS011;45778;51.142;3.732;2023-04-03T00:11:03;12.90;;;6.72;;
59922;SDS011;45778;51.142;3.732;2023-04-03T00:13:29;11.43;;;6.50;;
59922;SDS011;45778;51.142;3.732;2023-04-03T00:15:55;13.93;;;6.28;;
59922;SDS011;45778;51.142;3.732;2023-04-03T00:18:21;10.00;;;5.97;;
59922;SDS011;45778;51.142;3.732;2023-04-03T00:20:47;10.15;;;6.30;;
59922;SDS011;45778;51.142;3.732;2023-04-03T00:23:13;15.27;;;6.75;;
59922;SDS011;45778;51.142;3.732;2023-04-03T00:25:40;12.13;;;6.65;;
59922;SDS011;45778;51.142;3.732;2023-04-03T00:28:06;10.15;;;6.20;;
59922;SDS011;45778;51.142;3.732;2023-04-03T00:30:32;12.73;;;7.20;;
59922;SDS011;45778;51.142;3.732;2023-04-03T00:32:57;13.05;;;7.15;;
59922;SDS011;45778;51.142;3.732;2023-04-03T00:35:24;11.40;;;6.53;;
59922;SDS011;45778;51.142;3.732;2023-04-03T00:37:50;15.88;;;6.93;;
59922;SDS011;45778;51.142;3.732;2023-04-03T00:40:17;12.35;;;6.88;;
59922;SDS011;45778;51.142;3.732;2023-04-03T00:42:43;10.52;;;6.68;;
59922;SDS011;45778;51.142;3.732;2023-04-03T00:47:43;9.55;;;6.13;;
59922;SDS011;45778;51.142;3.732;2023-04-03T00:50:09;10.82;;;7.22;;
59922;SDS011;45778;51.142;3.732;2023-04-03T00:52:35;10.45;;;7.38;;
59922;SDS011;45778;51.142;3.732;2023-04-03T00:55:03;10.77;;;6.55;;
59922;SDS011;45778;51.142;3.732;2023-04-03T00:57:31;12.45;;;7.63;;
59922;SDS011;45778;51.142;3.732;2023-04-03T00:59:59;11.63;;;7.30;;
59922;SDS011;45778;51.142;3.732;2023-04-03T01:02:29;9.67;;;7.00;;
59922;SDS011;45778;51.142;3.732;2023-04-03T01:04:55;15.57;;;8.75;;
59922;SDS011;45778;51.142;3.732;2023-04-03T01:07:22;13.23;;;7.43;;
59922;SDS011;45778;51.142;3.732;2023-04-03T01:09:53;11.40;;;7.05;;
59922;SDS011;45778;51.142;3.732;2023-04-03T01:15:12;14.15;;;6.93;;
59922;SDS011;45778;51.142;3.732;2023-04-03T01:17:52;11.88;;;7.13;;
59922;SDS011;45778;51.142;3.732;2023-04-03T01:25:41;10.13;;;5.95;;
59922;SDS011;45778;51.142;3.732;2023-04-03T01:28:11;10.77;;;7.07;;
59922;SDS011;45778;51.142;3.732;2023-04-03T01:30:49;12.15;;;6.88;;
59922;SDS011;45778;51.142;3.732;2023-04-03T01:33:24;7.65;;;6.05;;
59922;SDS011;45778;51.142;3.732;2023-04-03T01:35:50;10.82;;;6.18;;
59922;SDS011;45778;51.142;3.732;2023-04-03T01:38:16;10.65;;;7.13;;
59922;SDS011;45778;51.142;3.732;2023-04-03T01:40:42;11.82;;;6.57;;
59922;SDS011;45778;51.142;3.732;2023-04-03T01:43:07;10.80;;;6.22;;
59922;SDS011;45778;51.142;3.732;2023-04-03T01:45:33;10.65;;;6.20;;
59922;SDS011;45778;51.142;3.732;2023-04-03T01:47:59;12.50;;;7.22;;
59922;SDS011;45778;51.142;3.732;2023-04-03T01:50:24;9.63;;;6.13;;
59922;SDS011;45778;51.142;3.732;2023-04-03T01:52:50;12.88;;;6.90;;
59922;SDS011;45778;51.142;3.732;2023-04-03T01:55:16;9.82;;;6.40;;
59922;SDS011;45778;51.142;3.732;2023-04-03T01:57:41;8.82;;;6.18;;
59922;SDS011;45778;51.142;3.732;2023-04-03T02:00:07;9.43;;;6.32;;
59922;SDS011;45778;51.142;3.732;2023-04-03T02:02:34;13.75;;;7.32;;
59922;SDS011;45778;51.142;3.732;2023-04-03T02:05:00;14.55;;;7.10;;
59922;SDS011;45778;51.142;3.732;2023-04-03T02:07:26;13.25;;;7.78;;
59922;SDS011;45778;51.142;3.732;2023-04-03T02:09:52;10.35;;;6.30;;
59922;SDS011;45778;51.142;3.732;2023-04-03T02:12:17;12.35;;;7.20;;
59922;SDS011;45778;51.142;3.732;2023-04-03T02:14:43;13.00;;;7.25;;
59922;SDS011;45778;51.142;3.732;2023-04-03T02:17:09;12.05;;;6.65;;
59922;SDS011;45778;51.142;3.732;2023-04-03T02:19:35;11.68;;;6.68;;
59922;SDS011;45778;51.142;3.732;2023-04-03T02:22:01;12.60;;;7.30;;
59922;SDS011;45778;51.142;3.732;2023-04-03T02:24:30;12.68;;;7.40;;
59922;SDS011;45778;51.142;3.732;2023-04-03T02:26:56;17.58;;;7.97;;
59922;SDS011;45778;51.142;3.732;2023-04-03T02:29:22;14.60;;;8.85;;
59922;SDS011;45778;51.142;3.732;2023-04-03T02:31:48;15.77;;;8.77;;
59922;SDS011;45778;51.142;3.732;2023-04-03T02:34:14;15.60;;;8.15;;
59922;SDS011;45778;51.142;3.732;2023-04-03T02:36:40;14.45;;;8.10;;
59922;SDS011;45778;51.142;3.732;2023-04-03T02:39:06;14.15;;;8.07;;
59922;SDS011;45778;51.142;3.732;2023-04-03T02:41:31;12.85;;;7.80;;
59922;SDS011;45778;51.142;3.732;2023-04-03T02:44:04;14.05;;;7.80;;
59922;SDS011;45778;51.142;3.732;2023-04-03T02:46:32;12.93;;;7.72;;
59922;SDS011;45778;51.142;3.732;2023-04-03T02:48:58;11.65;;;7.18;;
59922;SDS011;45778;51.142;3.732;2023-04-03T02:51:24;10.88;;;8.40;;
59922;SDS011;45778;51.142;3.732;2023-04-03T02:53:50;12.77;;;8.10;;
59922;SDS011;45778;51.142;3.732;2023-04-03T02:56:16;13.95;;;7.65;;
59922;SDS011;45778;51.142;3.732;2023-04-03T02:58:43;10.48;;;7.95;;
59922;SDS011;45778;51.142;3.732;2023-04-03T03:01:09;13.90;;;7.85;;
59922;SDS011;45778;51.142;3.732;2023-04-03T03:03:35;12.30;;;7.60;;
59922;SDS011;45778;51.142;3.732;2023-04-03T03:06:02;15.02;;;8.73;;
59922;SDS011;45778;51.142;3.732;2023-04-03T03:08:32;14.82;;;8.18;;
59922;SDS011;45778;51.142;3.732;2023-04-03T03:10:59;14.38;;;7.60;;
59922;SDS011;45778;51.142;3.732;2023-04-03T03:13:25;13.45;;;6.72;;
59922;SDS011;45778;51.142;3.732;2023-04-03T03:15:52;10.30;;;7.25;;
59922;SDS011;45778;51.142;3.732;2023-04-03T03:18:17;13.07;;;6.63;;
59922;SDS011;45778;51.142;3.732;2023-04-03T03:20:43;13.20;;;7.20;;
59922;SDS011;45778;51.142;3.732;2023-04-03T03:23:09;12.00;;;7.57;;
59922;SDS011;45778;51.142;3.732;2023-04-03T03:25:38;13.32;;;7.78;;
59922;SDS011;45778;51.142;3.732;2023-04-03T03:28:05;11.63;;;7.78;;
59922;SDS011;45778;51.142;3.732;2023-04-03T03:30:32;13.05;;;7.85;;
59922;SDS011;45778;51.142;3.732;2023-04-03T03:32:58;13.27;;;7.40;;
59922;SDS011;45778;51.142;3.732;2023-04-03T03:35:24;11.60;;;7.45;;
59922;SDS011;45778;51.142;3.732;2023-04-03T03:37:49;11.27;;;7.07;;
59922;SDS011;45778;51.142;3.732;2023-04-03T03:40:15;13.50;;;7.80;;
59922;SDS011;45778;51.142;3.732;2023-04-03T03:42:41;12.25;;;6.82;;
59922;SDS011;45778;51.142;3.732;2023-04-03T03:45:06;11.27;;;7.03;;
59922;SDS011;45778;51.142;3.732;2023-04-03T03:47:33;14.38;;;7.53;;
59922;SDS011;45778;51.142;3.732;2023-04-03T03:49:58;12.95;;;7.03;;
59922;SDS011;45778;51.142;3.732;2023-04-03T03:52:24;13.57;;;7.45;;
59922;SDS011;45778;51.142;3.732;2023-04-03T03:54:50;9.70;;;6.65;;
59922;SDS011;45778;51.142;3.732;2023-04-03T03:57:15;13.80;;;6.97;;
59922;SDS011;45778;51.142;3.732;2023-04-03T03:59:41;10.65;;;7.07;;
59922;SDS011;45778;51.142;3.732;2023-04-03T04:02:08;13.70;;;7.30;;
59922;SDS011;45778;51.142;3.732;2023-04-03T04:04:35;16.67;;;7.95;;
59922;SDS011;45778;51.142;3.732;2023-04-03T04:07:01;17.83;;;8.32;;
59922;SDS011;45778;51.142;3.732;2023-04-03T04:09:27;12.65;;;8.13;;
59922;SDS011;45778;51.142;3.732;2023-04-03T04:11:53;15.60;;;8.35;;
59922;SDS011;45778;51.142;3.732;2023-04-03T04:14:19;16.50;;;8.43;;
59922;SDS011;45778;51.142;3.732;2023-04-03T04:16:47;22.00;;;9.38;;
59922;SDS011;45778;51.142;3.732;2023-04-03T04:19:13;13.45;;;7.22;;
59922;SDS011;45778;51.142;3.732;2023-04-03T04:21:39;14.10;;;7.78;;
59922;SDS011;45778;51.142;3.732;2023-04-03T04:24:06;14.90;;;7.97;;
59922;SDS011;45778;51.142;3.732;2023-04-03T04:26:33;12.27;;;7.63;;
59922;SDS011;45778;51.142;3.732;2023-04-03T04:28:59;11.93;;;7.95;;
59922;SDS011;45778;51.142;3.732;2023-04-03T04:31:25;17.80;;;7.97;;
59922;SDS011;45778;51.142;3.732;2023-04-03T04:33:50;13.93;;;8.20;;
59922;SDS011;45778;51.142;3.732;2023-04-03T04:36:18;12.98;;;8.07;;
59922;SDS011;45778;51.142;3.732;2023-04-03T04:38:43;16.17;;;7.88;;
59922;SDS011;45778;51.142;3.732;2023-04-03T04:41:09;16.42;;;9.23;;
59922;SDS011;45778;51.142;3.732;2023-04-03T04:43:35;14.82;;;9.18;;
59922;SDS011;45778;51.142;3.732;2023-04-03T04:46:08;14.75;;;9.00;;
59922;SDS011;45778;51.142;3.732;2023-04-03T04:48:37;20.38;;;9.20;;
59922;SDS011;45778;51.142;3.732;2023-04-03T04:51:03;16.58;;;9.30;;
59922;SDS011;45778;51.142;3.732;2023-04-03T04:53:29;17.50;;;8.52;;
59922;SDS011;45778;51.142;3.732;2023-04-03T04:55:55;14.57;;;9.00;;
59922;SDS011;45778;51.142;3.732;2023-04-03T04:58:22;15.10;;;10.10;;
59922;SDS011;45778;51.142;3.732;2023-04-03T05:00:58;12.55;;;8.38;;
59922;SDS011;45778;51.142;3.732;2023-04-03T05:03:25;22.35;;;9.88;;
59922;SDS011;45778;51.142;3.732;2023-04-03T05:05:50;17.73;;;10.10;;
59922;SDS011;45778;51.142;3.732;2023-04-03T05:08:16;19.88;;;10.73;;
59922;SDS011;45778;51.142;3.732;2023-04-03T05:10:42;19.83;;;9.90;;
59922;SDS011;45778;51.142;3.732;2023-04-03T05:13:09;18.75;;;10.68;;
59922;SDS011;45778;51.142;3.732;2023-04-03T05:15:35;21.33;;;12.05;;
59922;SDS011;45778;51.142;3.732;2023-04-03T05:18:00;23.02;;;11.38;;
59922;SDS011;45778;51.142;3.732;2023-04-03T05:20:26;18.65;;;10.32;;
59922;SDS011;45778;51.142;3.732;2023-04-03T05:22:52;20.30;;;12.30;;
59922;SDS011;45778;51.142;3.732;2023-04-03T05:25:17;20.00;;;12.20;;
59922;SDS011;45778;51.142;3.732;2023-04-03T05:27:43;17.25;;;11.82;;
59922;SDS011;45778;51.142;3.732;2023-04-03T05:30:09;19.35;;;12.07;;
59922;SDS011;45778;51.142;3.732;2023-04-03T05:32:36;22.80;;;12.73;;
59922;SDS011;45778;51.142;3.732;2023-04-03T05:35:01;26.13;;;14.32;;
59922;SDS011;45778;51.142;3.732;2023-04-03T05:37:27;20.45;;;13.18;;
59922;SDS011;45778;51.142;3.732;2023-04-03T05:39:53;25.83;;;13.70;;
59922;SDS011;45778;51.142;3.732;2023-04-03T05:42:18;27.35;;;13.77;;
59922;SDS011;45778;51.142;3.732;2023-04-03T05:44:44;22.05;;;13.35;;
59922;SDS011;45778;51.142;3.732;2023-04-03T05:47:12;25.40;;;14.35;;
59922;SDS011;45778;51.142;3.732;2023-04-03T05:49:37;21.55;;;13.18;;
59922;SDS011;45778;51.142;3.732;2023-04-03T05:52:06;24.60;;;13.30;;
59922;SDS011;45778;51.142;3.732;2023-04-03T05:54:50;23.35;;;13.48;;
59922;SDS011;45778;51.142;3.732;2023-04-03T05:57:16;24.10;;;12.88;;
59922;SDS011;45778;51.142;3.732;2023-04-03T05:59:42;22.25;;;13.07;;
59922;SDS011;45778;51.142;3.732;2023-04-03T06:02:12;22.13;;;13.32;;
59922;SDS011;45778;51.142;3.732;2023-04-03T06:04:40;24.50;;;13.55;;
59922;SDS011;45778;51.142;3.732;2023-04-03T06:07:05;21.90;;;13.02;;
59922;SDS011;45778;51.142;3.732;2023-04-03T06:09:32;24.00;;;13.05;;
59922;SDS011;45778;51.142;3.732;2023-04-03T06:11:58;24.75;;;13.65;;
59922;SDS011;45778;51.142;3.732;2023-04-03T06:14:25;21.00;;;13.43;;
59922;SDS011;45778;51.142;3.732;2023-04-03T06:16:51;18.80;;;13.68;;
59922;SDS011;45778;51.142;3.732;2023-04-03T06:19:17;25.73;;;13.82;;
59922;SDS011;45778;51.142;3.732;2023-04-03T06:21:43;28.45;;;13.55;;
59922;SDS011;45778;51.142;3.732;2023-04-03T06:24:09;21.75;;;13.52;;
59922;SDS011;45778;51.142;3.732;2023-04-03T06:26:40;22.55;;;14.20;;
59922;SDS011;45778;51.142;3.732;2023-04-03T06:29:06;23.58;;;13.52;;
59922;SDS011;45778;51.142;3.732;2023-04-03T06:31:32;20.83;;;12.38;;
59922;SDS011;45778;51.142;3.732;2023-04-03T06:33:58;18.40;;;12.63;;
59922;SDS011;45778;51.142;3.732;2023-04-03T06:36:24;21.83;;;12.25;;
59922;SDS011;45778;51.142;3.732;2023-04-03T06:38:50;17.40;;;10.20;;
59922;SDS011;45778;51.142;3.732;2023-04-03T06:41:16;16.13;;;10.82;;
59922;SDS011;45778;51.142;3.732;2023-04-03T06:43:42;21.05;;;11.30;;
59922;SDS011;45778;51.142;3.732;2023-04-03T06:46:16;15.30;;;10.38;;
59922;SDS011;45778;51.142;3.732;2023-04-03T06:48:43;15.93;;;10.23;;
59922;SDS011;45778;51.142;3.732;2023-04-03T06:51:17;12.77;;;9.40;;
59922;SDS011;45778;51.142;3.732;2023-04-03T06:53:54;13.55;;;9.35;;
59922;SDS011;45778;51.142;3.732;2023-04-03T06:56:21;13.85;;;8.70;;
59922;SDS011;45778;51.142;3.732;2023-04-03T06:58:47;14.57;;;9.68;;
59922;SDS011;45778;51.142;3.732;2023-04-03T07:01:15;13.30;;;9.57;;
59922;SDS011;45778;51.142;3.732;2023-04-03T07:03:42;15.82;;;8.85;;
59922;SDS011;45778;51.142;3.732;2023-04-03T07:06:09;15.93;;;8.70;;
59922;SDS011;45778;51.142;3.732;2023-04-03T07:08:37;14.30;;;8.65;;
59922;SDS011;45778;51.142;3.732;2023-04-03T07:11:04;15.73;;;8.52;;
59922;SDS011;45778;51.142;3.732;2023-04-03T07:13:30;17.00;;;8.18;;
59922;SDS011;45778;51.142;3.732;2023-04-03T07:15:55;12.73;;;8.63;;
59922;SDS011;45778;51.142;3.732;2023-04-03T07:18:21;13.15;;;9.40;;
59922;SDS011;45778;51.142;3.732;2023-04-03T07:20:47;13.57;;;8.98;;
59922;SDS011;45778;51.142;3.732;2023-04-03T07:23:13;12.07;;;8.00;;
59922;SDS011;45778;51.142;3.732;2023-04-03T07:25:44;11.55;;;7.93;;
59922;SDS011;45778;51.142;3.732;2023-04-03T07:28:11;13.55;;;8.27;;
59922;SDS011;45778;51.142;3.732;2023-04-03T07:33:37;10.82;;;6.95;;
59922;SDS011;45778;51.142;3.732;2023-04-03T07:36:03;13.52;;;6.70;;
59922;SDS011;45778;51.142;3.732;2023-04-03T07:38:32;9.73;;;6.65;;
59922;SDS011;45778;51.142;3.732;2023-04-03T07:40:58;11.38;;;6.28;;
59922;SDS011;45778;51.142;3.732;2023-04-03T07:43:24;13.40;;;6.55;;
59922;SDS011;45778;51.142;3.732;2023-04-03T07:45:50;9.70;;;5.90;;
59922;SDS011;45778;51.142;3.732;2023-04-03T07:48:17;8.88;;;6.20;;
59922;SDS011;45778;51.142;3.732;2023-04-03T07:50:43;12.05;;;6.22;;
59922;SDS011;45778;51.142;3.732;2023-04-03T07:53:09;7.45;;;6.25;;
59922;SDS011;45778;51.142;3.732;2023-04-03T07:55:35;9.63;;;5.18;;
59922;SDS011;45778;51.142;3.732;2023-04-03T07:58:08;12.88;;;5.35;;
59922;SDS011;45778;51.142;3.732;2023-04-03T08:00:38;6.63;;;4.97;;
59922;SDS011;45778;51.142;3.732;2023-04-03T08:03:04;14.15;;;6.07;;
59922;SDS011;45778;51.142;3.732;2023-04-03T08:05:30;12.57;;;5.60;;
59922;SDS011;45778;51.142;3.732;2023-04-03T08:07:56;14.45;;;6.97;;
59922;SDS011;45778;51.142;3.732;2023-04-03T08:10:22;16.17;;;6.80;;
59922;SDS011;45778;51.142;3.732;2023-04-03T08:12:48;10.18;;;6.55;;
59922;SDS011;45778;51.142;3.732;2023-04-03T08:15:14;8.88;;;6.05;;
59922;SDS011;45778;51.142;3.732;2023-04-03T08:17:40;8.85;;;6.15;;
59922;SDS011;45778;51.142;3.732;2023-04-03T08:20:06;8.85;;;6.20;;
59922;SDS011;45778;51.142;3.732;2023-04-03T08:22:33;8.13;;;5.50;;
59922;SDS011;45778;51.142;3.732;2023-04-03T08:24:59;10.25;;;4.63;;
59922;SDS011;45778;51.142;3.732;2023-04-03T08:27:26;9.55;;;5.35;;
59922;SDS011;45778;51.142;3.732;2023-04-03T08:29:52;10.63;;;4.90;;
59922;SDS011;45778;51.142;3.732;2023-04-03T08:32:18;10.57;;;5.25;;
59922;SDS011;45778;51.142;3.732;2023-04-03T08:34:44;9.60;;;4.85;;
59922;SDS011;45778;51.142;3.732;2023-04-03T08:37:11;11.70;;;4.55;;
59922;SDS011;45778;51.142;3.732;2023-04-03T08:39:37;8.57;;;4.90;;
59922;SDS011;45778;51.142;3.732;2023-04-03T08:42:04;7.82;;;4.25;;
59922;SDS011;45778;51.142;3.732;2023-04-03T08:44:41;7.65;;;4.20;;
59922;SDS011;45778;51.142;3.732;2023-04-03T08:47:24;9.48;;;4.78;;
59922;SDS011;45778;51.142;3.732;2023-04-03T08:49:59;7.32;;;3.90;;
59922;SDS011;45778;51.142;3.732;2023-04-03T08:52:32;7.35;;;3.97;;
59922;SDS011;45778;51.142;3.732;2023-04-03T08:55:00;6.03;;;3.80;;
59922;SDS011;45778;51.142;3.732;2023-04-03T09:00:22;5.10;;;3.20;;
59922;SDS011;45778;51.142;3.732;2023-04-03T09:02:54;4.93;;;3.25;;
59922;SDS011;45778;51.142;3.732;2023-04-03T09:08:04;6.05;;;2.60;;
59922;SDS011;45778;51.142;3.732;2023-04-03T09:10:39;4.55;;;2.80;;
59922;SDS011;45778;51.142;3.732;2023-04-03T09:16:20;7.03;;;3.45;;
59922;SDS011;45778;51.142;3.732;2023-04-03T09:19:07;6.18;;;4.28;;
59922;SDS011;45778;51.142;3.732;2023-04-03T09:22:17;6.57;;;2.72;;
59922;SDS011;45778;51.142;3.732;2023-04-03T09:25:13;4.38;;;2.70;;
59922;SDS011;45778;51.142;3.732;2023-04-03T09:27:43;4.78;;;2.70;;
59922;SDS011;45778;51.142;3.732;2023-04-03T09:30:13;7.40;;;3.33;;
59922;SDS011;45778;51.142;3.732;2023-04-03T09:32:41;4.15;;;2.22;;
59922;SDS011;45778;51.142;3.732;2023-04-03T09:45:42;3.58;;;1.50;;
59922;SDS011;45778;51.142;3.732;2023-04-03T09:51:23;5.03;;;1.90;;
59922;SDS011;45778;51.142;3.732;2023-04-03T09:53:41;4.10;;;1.45;;
59922;SDS011;45778;51.142;3.732;2023-04-03T09:58:41;5.28;;;1.83;;
59922;SDS011;45778;51.142;3.732;2023-04-03T10:04:05;5.07;;;1.38;;
59922;SDS011;45778;51.142;3.732;2023-04-03T10:06:36;4.95;;;1.50;;
59922;SDS011;45778;51.142;3.732;2023-04-03T10:09:12;6.10;;;2.20;;
59922;SDS011;45778;51.142;3.732;2023-04-03T10:11:50;2.90;;;1.35;;
59922;SDS011;45778;51.142;3.732;2023-04-03T10:14:35;5.30;;;1.98;;
59922;SDS011;45778;51.142;3.732;2023-04-03T10:27:53;7.05;;;2.00;;
59922;SDS011;45778;51.142;3.732;2023-04-03T10:47:08;9.48;;;2.33;;
59922;SDS011;45778;51.142;3.732;2023-04-03T10:49:45;10.40;;;5.20;;
59922;SDS011;45778;51.142;3.732;2023-04-03T10:57:42;6.78;;;1.40;;
59922;SDS011;45778;51.142;3.732;2023-04-03T11:00:14;5.38;;;1.20;;
59922;SDS011;45778;51.142;3.732;2023-04-03T11:08:05;3.13;;;0.93;;
59922;SDS011;45778;51.142;3.732;2023-04-03T11:10:45;2.83;;;1.00;;
59922;SDS011;45778;51.142;3.732;2023-04-03T11:13:19;2.50;;;1.10;;
59922;SDS011;45778;51.142;3.732;2023-04-03T11:15:51;3.88;;;1.88;;
59922;SDS011;45778;51.142;3.732;2023-04-03T11:18:22;2.08;;;1.08;;
59922;SDS011;45778;51.142;3.732;2023-04-03T11:21:04;1.65;;;1.10;;
59922;SDS011;45778;51.142;3.732;2023-04-03T11:23:46;3.38;;;1.05;;
59922;SDS011;45778;51.142;3.732;2023-04-03T11:26:14;5.18;;;1.15;;
59922;SDS011;45778;51.142;3.732;2023-04-03T11:28:45;3.20;;;1.48;;
59922;SDS011;45778;51.142;3.732;2023-04-03T11:36:30;4.78;;;1.88;;
59922;SDS011;45778;51.142;3.732;2023-04-03T11:39:00;4.35;;;1.30;;
59922;SDS011;45778;51.142;3.732;2023-04-03T11:41:47;3.10;;;1.85;;
59922;SDS011;45778;51.142;3.732;2023-04-03T11:47:07;1.33;;;0.90;;
59922;SDS011;45778;51.142;3.732;2023-04-03T11:49:51;2.80;;;1.08;;
59922;SDS011;45778;51.142;3.732;2023-04-03T11:53:26;2.65;;;0.90;;
59922;SDS011;45778;51.142;3.732;2023-04-03T11:57:49;6.72;;;1.33;;
59922;SDS011;45778;51.142;3.732;2023-04-03T12:05:51;2.80;;;0.80;;
59922;SDS011;45778;51.142;3.732;2023-04-03T12:13:34;2.65;;;0.80;;
59922;SDS011;45778;51.142;3.732;2023-04-03T12:16:00;3.90;;;1.10;;
59922;SDS011;45778;51.142;3.732;2023-04-03T12:22:04;3.55;;;0.80;;
59922;SDS011;45778;51.142;3.732;2023-04-03T12:26:49;1.70;;;0.70;;
59922;SDS011;45778;51.142;3.732;2023-04-03T12:40:07;3.67;;;1.17;;
59922;SDS011;45778;51.142;3.732;2023-04-03T12:48:28;2.13;;;0.90;;
59922;SDS011;45778;51.142;3.732;2023-04-03T12:50:56;3.53;;;0.90;;
59922;SDS011;45778;51.142;3.732;2023-04-03T12:53:27;1.70;;;0.90;;
59922;SDS011;45778;51.142;3.732;2023-04-03T12:56:44;4.20;;;0.98;;
59922;SDS011;45778;51.142;3.732;2023-04-03T12:58:45;1.80;;;1.15;;
59922;SDS011;45778;51.142;3.732;2023-04-03T13:01:13;1.80;;;0.93;;
59922;SDS011;45778;51.142;3.732;2023-04-03T13:03:44;2.33;;;0.98;;
59922;SDS011;45778;51.142;3.732;2023-04-03T13:06:45;2.00;;;0.80;;
59922;SDS011;45778;51.142;3.732;2023-04-03T13:11:36;2.60;;;0.80;;
59922;SDS011;45778;51.142;3.732;2023-04-03T13:14:12;2.40;;;1.10;;
59922;SDS011;45778;51.142;3.732;2023-04-03T13:16:41;3.97;;;1.55;;
59922;SDS011;45778;51.142;3.732;2023-04-03T13:19:17;4.60;;;1.10;;
59922;SDS011;45778;51.142;3.732;2023-04-03T13:21:43;4.78;;;0.75;;
59922;SDS011;45778;51.142;3.732;2023-04-03T13:24:10;4.05;;;1.55;;
59922;SDS011;45778;51.142;3.732;2023-04-03T13:26:36;2.20;;;0.70;;
59922;SDS011;45778;51.142;3.732;2023-04-03T13:29:03;3.42;;;0.98;;
59922;SDS011;45778;51.142;3.732;2023-04-03T13:31:36;3.15;;;0.80;;
59922;SDS011;45778;51.142;3.732;2023-04-03T13:34:10;3.95;;;0.88;;
59922;SDS011;45778;51.142;3.732;2023-04-03T13:37:05;3.33;;;0.90;;
59922;SDS011;45778;51.142;3.732;2023-04-03T13:39:32;2.05;;;1.05;;
59922;SDS011;45778;51.142;3.732;2023-04-03T13:42:01;3.17;;;1.00;;
59922;SDS011;45778;51.142;3.732;2023-04-03T13:44:46;2.42;;;1.25;;
59922;SDS011;45778;51.142;3.732;2023-04-03T13:47:20;3.92;;;0.90;;
59922;SDS011;45778;51.142;3.732;2023-04-03T13:50:12;6.15;;;1.80;;
59922;SDS011;45778;51.142;3.732;2023-04-03T13:52:40;4.10;;;1.77;;
59922;SDS011;45778;51.142;3.732;2023-04-03T13:55:31;4.57;;;1.13;;
59922;SDS011;45778;51.142;3.732;2023-04-03T14:03:12;6.25;;;3.00;;
59922;SDS011;45778;51.142;3.732;2023-04-03T14:05:39;4.45;;;1.98;;
59922;SDS011;45778;51.142;3.732;2023-04-03T14:08:05;3.53;;;1.30;;
59922;SDS011;45778;51.142;3.732;2023-04-03T14:10:32;6.43;;;1.50;;
59922;SDS011;45778;51.142;3.732;2023-04-03T14:12:58;1.80;;;1.08;;
59922;SDS011;45778;51.142;3.732;2023-04-03T14:15:24;6.47;;;1.92;;
59922;SDS011;45778;51.142;3.732;2023-04-03T14:17:53;5.53;;;2.80;;
59922;SDS011;45778;51.142;3.732;2023-04-03T14:20:21;10.68;;;1.98;;
59922;SDS011;45778;51.142;3.732;2023-04-03T14:22:49;3.55;;;1.25;;
59922;SDS011;45778;51.142;3.732;2023-04-03T14:25:16;3.55;;;1.35;;
59922;SDS011;45778;51.142;3.732;2023-04-03T14:27:44;3.85;;;1.10;;
59922;SDS011;45778;51.142;3.732;2023-04-03T14:30:14;1.50;;;0.70;;
59922;SDS011;45778;51.142;3.732;2023-04-03T14:32:45;2.47;;;0.98;;
59922;SDS011;45778;51.142;3.732;2023-04-03T14:35:12;2.83;;;1.55;;
59922;SDS011;45778;51.142;3.732;2023-04-03T14:37:38;1.05;;;0.80;;
59922;SDS011;45778;51.142;3.732;2023-04-03T14:40:05;3.78;;;1.20;;
59922;SDS011;45778;51.142;3.732;2023-04-03T14:42:33;5.60;;;1.10;;
59922;SDS011;45778;51.142;3.732;2023-04-03T14:45:04;5.32;;;3.38;;
59922;SDS011;45778;51.142;3.732;2023-04-03T14:47:33;2.22;;;0.90;;
59922;SDS011;45778;51.142;3.732;2023-04-03T14:50:20;2.50;;;1.23;;
59922;SDS011;45778;51.142;3.732;2023-04-03T14:52:49;1.60;;;0.77;;
59922;SDS011;45778;51.142;3.732;2023-04-03T14:55:19;2.50;;;0.93;;
59922;SDS011;45778;51.142;3.732;2023-04-03T14:57:46;1.95;;;1.00;;
59922;SDS011;45778;51.142;3.732;2023-04-03T15:00:14;2.50;;;0.80;;
59922;SDS011;45778;51.142;3.732;2023-04-03T15:02:42;3.50;;;1.02;;
59922;SDS011;45778;51.142;3.732;2023-04-03T15:05:10;1.98;;;0.82;;
59922;SDS011;45778;51.142;3.732;2023-04-03T15:07:49;2.03;;;0.95;;
59922;SDS011;45778;51.142;3.732;2023-04-03T15:10:23;4.93;;;1.10;;
59922;SDS011;45778;51.142;3.732;2023-04-03T15:12:50;3.25;;;0.90;;
59922;SDS011;45778;51.142;3.732;2023-04-03T15:15:18;2.08;;;1.00;;
59922;SDS011;45778;51.142;3.732;2023-04-03T15:17:45;1.65;;;0.75;;
59922;SDS011;45778;51.142;3.732;2023-04-03T15:20:17;3.25;;;0.73;;
59922;SDS011;45778;51.142;3.732;2023-04-03T15:22:45;1.80;;;0.90;;
59922;SDS011;45778;51.142;3.732;2023-04-03T15:25:11;4.22;;;0.90;;
59922;SDS011;45778;51.142;3.732;2023-04-03T15:27:37;2.40;;;0.88;;
59922;SDS011;45778;51.142;3.732;2023-04-03T15:30:04;3.88;;;0.80;;
59922;SDS011;45778;51.142;3.732;2023-04-03T15:32:31;2.45;;;0.77;;
59922;SDS011;45778;51.142;3.732;2023-04-03T15:34:58;2.47;;;0.70;;
59922;SDS011;45778;51.142;3.732;2023-04-03T15:37:24;2.60;;;0.82;;
59922;SDS011;45778;51.142;3.732;2023-04-03T15:39:50;4.45;;;2.75;;
59922;SDS011;45778;51.142;3.732;2023-04-03T15:42:15;1.23;;;0.70;;
59922;SDS011;45778;51.142;3.732;2023-04-03T15:44:41;1.65;;;0.60;;
59922;SDS011;45778;51.142;3.732;2023-04-03T15:47:07;2.40;;;0.85;;
59922;SDS011;45778;51.142;3.732;2023-04-03T15:49:33;2.75;;;0.90;;
59922;SDS011;45778;51.142;3.732;2023-04-03T15:52:00;1.73;;;0.77;;
59922;SDS011;45778;51.142;3.732;2023-04-03T15:54:26;2.60;;;0.80;;
59922;SDS011;45778;51.142;3.732;2023-04-03T15:56:54;2.90;;;1.10;;
59922;SDS011;45778;51.142;3.732;2023-04-03T15:59:20;2.47;;;0.85;;
59922;SDS011;45778;51.142;3.732;2023-04-03T16:01:46;4.43;;;0.80;;
59922;SDS011;45778;51.142;3.732;2023-04-03T16:04:13;3.30;;;0.88;;
59922;SDS011;45778;51.142;3.732;2023-04-03T16:06:40;1.80;;;0.80;;
59922;SDS011;45778;51.142;3.732;2023-04-03T16:09:06;1.92;;;0.73;;
59922;SDS011;45778;51.142;3.732;2023-04-03T16:11:32;5.82;;;3.33;;
59922;SDS011;45778;51.142;3.732;2023-04-03T16:14:00;3.30;;;1.83;;
59922;SDS011;45778;51.142;3.732;2023-04-03T16:16:26;3.75;;;1.63;;
59922;SDS011;45778;51.142;3.732;2023-04-03T16:18:53;4.28;;;0.95;;
59922;SDS011;45778;51.142;3.732;2023-04-03T16:21:20;9.18;;;5.72;;
59922;SDS011;45778;51.142;3.732;2023-04-03T16:23:46;6.15;;;3.30;;
59922;SDS011;45778;51.142;3.732;2023-04-03T16:26:12;3.13;;;0.88;;
59922;SDS011;45778;51.142;3.732;2023-04-03T16:28:38;5.53;;;3.45;;
59922;SDS011;45778;51.142;3.732;2023-04-03T16:31:04;12.93;;;8.23;;
59922;SDS011;45778;51.142;3.732;2023-04-03T16:33:31;3.60;;;2.42;;
59922;SDS011;45778;51.142;3.732;2023-04-03T16:35:57;2.38;;;1.27;;
59922;SDS011;45778;51.142;3.732;2023-04-03T16:38:23;3.50;;;2.45;;
59922;SDS011;45778;51.142;3.732;2023-04-03T16:40:48;4.32;;;1.50;;
59922;SDS011;45778;51.142;3.732;2023-04-03T16:43:15;6.85;;;1.80;;
59922;SDS011;45778;51.142;3.732;2023-04-03T16:45:41;6.57;;;2.25;;
59922;SDS011;45778;51.142;3.732;2023-04-03T16:48:07;7.43;;;2.53;;
59922;SDS011;45778;51.142;3.732;2023-04-03T16:50:33;6.50;;;2.22;;
59922;SDS011;45778;51.142;3.732;2023-04-03T16:52:59;5.18;;;2.35;;
59922;SDS011;45778;51.142;3.732;2023-04-03T16:55:24;6.00;;;2.10;;
59922;SDS011;45778;51.142;3.732;2023-04-03T16:57:50;6.55;;;2.88;;